Carlsbad Caverns National Park, NM

5:31 PM MST on January 29, 2015 (GMT -0700)
KNMCARLS3 | Change Station
CLOSE
Current Station
Personal Weather Station
Location: Carlsbad, NM
Elevation: 3158 ft
Nearby Weather Stations

Elev 3158 ft 32.43 °N, 104.25 °W | Updated 4 seconds ago

Overcast
Overcast
54.4 °F
Feels Like 54.4 °F
N
0.0
Wind Variable Wind from North
Gusts 0.0 mph

Today
High -- | Low -- °F
--% Chance of Precip.
Yesterday
High -- | Low -- °F
Precip. -- in
6:53 AM 5:27 PM
Waxing Gibbous, 78% visible
Pressure 30.35 in
Visibility 10.0 miles
Clouds Few 6000 ft
Mostly Cloudy 10000 ft
Overcast 12000 ft
Dew Point 32 °F
Humidity 43%
Rainfall 0.00 in
Snow Depth Not available.
UV 0 out of 12
Pollen 6.10 out of 12
Air Quality Not available.
Flu Activity Not available.
METAR KCNM 292353Z AUTO 04006KT 10SM FEW060 BKN100 OVC120 13/M01 A3041 RMK AO2 SLP276 T01281006 10156 20128 53004

More Conditions Fewer Conditions

Pressure 30.35 in
Visibility 10.0 miles
Clouds Few 6000 ft
Mostly Cloudy 10000 ft
Overcast 12000 ft
Dew Point 32 °F
Humidity 43%
Rainfall 0.00 in
Snow Depth Not available.
UV 0 out of 12
Pollen 6.10 out of 12
Air Quality Not available.
Flu Activity Not available.
METAR KCNM 292353Z AUTO 04006KT 10SM FEW060 BKN100 OVC120 13/M01 A3041 RMK AO2 SLP276 T01281006 10156 20128 53004

More Conditions Fewer Conditions

10-Day Weather Forecast

Almanac

Astronomy

Jan. 29, 2015 Rise Set
Actual Time
Civil Twilight
Nautical Twilight
Astronomical Twilight
Moon
Length of Visible Light
Length of Day
Tomorrow will be .
, % of the Moon is Illuminated

Today's Extremes

State Highs State Lows

Community

WunderPhotos

Upload Photos

1,791,656 photos uploaded!

WunderBlogs® & News

Nearby

Air Quality

  Air Quality AQ Index Pollutant
Not available.

Snow Depth

Station Depth Elevation

Earthquake Activity

City Distance Mag. Time & Date
Minimum magnitude displayed is 2.5.

Coastal Water Temperatures

Place Temperature

Nearby Weather Stations